sensor_id;sensor_type;location;lat;lon;timestamp;pressure;altitude;pressure_sealevel;temperature;humidity
71621;BME280;59471;42.254;23.102;2023-07-31T00:02:00;95505.09;;;20.80;82.11
71621;BME280;59471;42.254;23.102;2023-07-31T00:04:26;95485.25;;;20.66;82.91
71621;BME280;59471;42.254;23.102;2023-07-31T00:06:51;95497.31;;;20.73;82.65
71621;BME280;59471;42.254;23.102;2023-07-31T00:09:17;95499.94;;;20.95;82.12
71621;BME280;59471;42.254;23.102;2023-07-31T00:11:42;95503.38;;;20.91;82.18
71621;BME280;59471;42.254;23.102;2023-07-31T00:14:08;95508.31;;;20.82;82.57
71621;BME280;59471;42.254;23.102;2023-07-31T00:16:33;95489.19;;;20.41;84.97
71621;BME280;59471;42.254;23.102;2023-07-31T00:18:59;95489.94;;;20.14;86.63
71621;BME280;59471;42.254;23.102;2023-07-31T00:21:24;95478.81;;;20.18;85.37
71621;BME280;59471;42.254;23.102;2023-07-31T00:23:50;95478.63;;;20.24;85.54
71621;BME280;59471;42.254;23.102;2023-07-31T00:26:15;95486.03;;;20.22;85.15
71621;BME280;59471;42.254;23.102;2023-07-31T00:28:41;95482.09;;;20.25;84.41
71621;BME280;59471;42.254;23.102;2023-07-31T00:31:06;95478.06;;;20.22;84.38
71621;BME280;59471;42.254;23.102;2023-07-31T00:33:34;95482.38;;;20.06;84.01
71621;BME280;59471;42.254;23.102;2023-07-31T00:36:00;95495.28;;;19.98;86.78
71621;BME280;59471;42.254;23.102;2023-07-31T00:38:28;95501.41;;;19.98;85.27
71621;BME280;59471;42.254;23.102;2023-07-31T00:40:53;95494.00;;;20.00;85.28
71621;BME280;59471;42.254;23.102;2023-07-31T00:43:19;95482.75;;;19.93;86.15
71621;BME280;59471;42.254;23.102;2023-07-31T00:45:44;95482.50;;;20.17;86.36
71621;BME280;59471;42.254;23.102;2023-07-31T00:48:10;95498.28;;;20.23;85.15
71621;BME280;59471;42.254;23.102;2023-07-31T00:50:36;95491.97;;;20.29;84.26
71621;BME280;59471;42.254;23.102;2023-07-31T00:53:03;95495.00;;;20.16;84.40
71621;BME280;59471;42.254;23.102;2023-07-31T00:55:29;95490.84;;;20.03;86.43
71621;BME280;59471;42.254;23.102;2023-07-31T00:57:55;95488.69;;;20.00;86.06
71621;BME280;59471;42.254;23.102;2023-07-31T01:00:21;95488.00;;;20.10;85.99
71621;BME280;59471;42.254;23.102;2023-07-31T01:02:48;95496.25;;;20.08;86.00
71621;BME280;59471;42.254;23.102;2023-07-31T01:05:15;95493.59;;;20.08;86.84
71621;BME280;59471;42.254;23.102;2023-07-31T01:10:30;95486.78;;;20.40;85.12
71621;BME280;59471;42.254;23.102;2023-07-31T01:13:03;95491.19;;;20.29;85.44
71621;BME280;59471;42.254;23.102;2023-07-31T01:15:29;95492.22;;;20.06;85.63
71621;BME280;59471;42.254;23.102;2023-07-31T01:17:54;95488.81;;;20.10;87.61
71621;BME280;59471;42.254;23.102;2023-07-31T01:20:24;95487.25;;;20.53;87.13
71621;BME280;59471;42.254;23.102;2023-07-31T01:28:06;95485.88;;;20.73;84.61
71621;BME280;59471;42.254;23.102;2023-07-31T01:30:37;95485.47;;;20.59;84.45
71621;BME280;59471;42.254;23.102;2023-07-31T01:33:07;95482.50;;;20.55;84.46
71621;BME280;59471;42.254;23.102;2023-07-31T01:35:34;95487.59;;;20.40;86.16
71621;BME280;59471;42.254;23.102;2023-07-31T01:38:00;95494.25;;;20.21;86.26
71621;BME280;59471;42.254;23.102;2023-07-31T01:40:25;95489.94;;;20.14;86.80
71621;BME280;59471;42.254;23.102;2023-07-31T01:42:51;95489.94;;;20.14;85.15
71621;BME280;59471;42.254;23.102;2023-07-31T01:45:16;95491.66;;;20.26;85.40
71621;BME280;59471;42.254;23.102;2023-07-31T01:47:42;95484.13;;;20.18;85.88
71621;BME280;59471;42.254;23.102;2023-07-31T01:50:08;95492.59;;;20.14;85.65
71621;BME280;59471;42.254;23.102;2023-07-31T01:52:34;95488.94;;;20.21;85.89
71621;BME280;59471;42.254;23.102;2023-07-31T01:54:59;95486.84;;;20.23;87.16
71621;BME280;59471;42.254;23.102;2023-07-31T01:57:25;95488.44;;;20.24;87.22
71621;BME280;59471;42.254;23.102;2023-07-31T01:59:50;95487.16;;;20.26;86.18
71621;BME280;59471;42.254;23.102;2023-07-31T02:02:18;95493.44;;;20.20;86.44
71621;BME280;59471;42.254;23.102;2023-07-31T02:04:44;95501.31;;;20.32;82.83
71621;BME280;59471;42.254;23.102;2023-07-31T02:07:10;95510.16;;;20.37;84.44
71621;BME280;59471;42.254;23.102;2023-07-31T02:09:36;95515.41;;;20.32;83.68
71621;BME280;59471;42.254;23.102;2023-07-31T02:12:01;95523.97;;;20.34;81.66
71621;BME280;59471;42.254;23.102;2023-07-31T02:14:27;95530.78;;;20.47;81.31
71621;BME280;59471;42.254;23.102;2023-07-31T02:16:53;95536.41;;;20.51;80.64
71621;BME280;59471;42.254;23.102;2023-07-31T02:19:18;95530.16;;;20.40;80.92
71621;BME280;59471;42.254;23.102;2023-07-31T02:21:44;95537.44;;;20.28;81.64
71621;BME280;59471;42.254;23.102;2023-07-31T02:24:09;95543.47;;;20.23;81.42
71621;BME280;59471;42.254;23.102;2023-07-31T02:26:35;95549.75;;;20.34;81.32
71621;BME280;59471;42.254;23.102;2023-07-31T02:29:00;95559.25;;;20.30;81.42
71621;BME280;59471;42.254;23.102;2023-07-31T02:31:26;95560.31;;;20.29;82.61
71621;BME280;59471;42.254;23.102;2023-07-31T02:33:51;95564.16;;;20.38;81.98
71621;BME280;59471;42.254;23.102;2023-07-31T02:36:17;95562.75;;;20.13;82.84
71621;BME280;59471;42.254;23.102;2023-07-31T02:38:42;95559.06;;;20.14;82.92
71621;BME280;59471;42.254;23.102;2023-07-31T02:41:08;95569.22;;;20.18;83.67
71621;BME280;59471;42.254;23.102;2023-07-31T02:43:33;95576.19;;;20.24;84.63
71621;BME280;59471;42.254;23.102;2023-07-31T02:45:59;95579.63;;;20.41;84.08
71621;BME280;59471;42.254;23.102;2023-07-31T02:48:25;95564.97;;;20.55;84.50
71621;BME280;59471;42.254;23.102;2023-07-31T02:50:50;95564.41;;;20.53;84.52
71621;BME280;59471;42.254;23.102;2023-07-31T02:53:16;95558.28;;;20.36;84.98
71621;BME280;59471;42.254;23.102;2023-07-31T02:55:41;95557.56;;;20.24;85.28
71621;BME280;59471;42.254;23.102;2023-07-31T02:58:07;95548.06;;;20.28;85.40
71621;BME280;59471;42.254;23.102;2023-07-31T03:00:32;95549.28;;;20.37;84.36
71621;BME280;59471;42.254;23.102;2023-07-31T03:02:58;95552.97;;;20.36;83.69
71621;BME280;59471;42.254;23.102;2023-07-31T03:05:23;95544.19;;;20.52;83.86
71621;BME280;59471;42.254;23.102;2023-07-31T03:07:49;95539.97;;;20.56;82.93
71621;BME280;59471;42.254;23.102;2023-07-31T03:10:14;95551.34;;;20.74;82.30
71621;BME280;59471;42.254;23.102;2023-07-31T03:12:40;95549.00;;;20.55;83.54
71621;BME280;59471;42.254;23.102;2023-07-31T03:15:06;95537.88;;;20.42;83.38
71621;BME280;59471;42.254;23.102;2023-07-31T03:17:32;95540.63;;;20.30;84.35
71621;BME280;59471;42.254;23.102;2023-07-31T03:19:58;95541.91;;;20.44;84.15
71621;BME280;59471;42.254;23.102;2023-07-31T03:22:23;95536.47;;;20.34;84.07
71621;BME280;59471;42.254;23.102;2023-07-31T03:24:49;95541.53;;;20.35;83.79
71621;BME280;59471;42.254;23.102;2023-07-31T03:27:14;95539.72;;;20.19;84.30
71621;BME280;59471;42.254;23.102;2023-07-31T03:29:40;95543.88;;;20.32;83.74
71621;BME280;59471;42.254;23.102;2023-07-31T03:32:06;95544.34;;;20.29;82.95
71621;BME280;59471;42.254;23.102;2023-07-31T03:34:31;95547.22;;;20.44;82.97
71621;BME280;59471;42.254;23.102;2023-07-31T03:36:58;95549.31;;;20.42;82.29
71621;BME280;59471;42.254;23.102;2023-07-31T03:39:23;95559.53;;;20.50;82.26
71621;BME280;59471;42.254;23.102;2023-07-31T03:41:49;95564.78;;;20.45;82.93
71621;BME280;59471;42.254;23.102;2023-07-31T03:44:14;95565.28;;;20.59;82.44
71621;BME280;59471;42.254;23.102;2023-07-31T03:46:40;95575.25;;;20.69;81.63
71621;BME280;59471;42.254;23.102;2023-07-31T03:49:05;95573.44;;;20.74;81.04
71621;BME280;59471;42.254;23.102;2023-07-31T03:51:31;95581.47;;;20.57;81.65
71621;BME280;59471;42.254;23.102;2023-07-31T03:53:56;95580.94;;;20.55;82.08
71621;BME280;59471;42.254;23.102;2023-07-31T03:56:22;95586.88;;;20.63;82.24
71621;BME280;59471;42.254;23.102;2023-07-31T03:58:47;95591.06;;;20.58;82.96
71621;BME280;59471;42.254;23.102;2023-07-31T04:01:13;95597.19;;;20.42;82.57
71621;BME280;59471;42.254;23.102;2023-07-31T04:03:39;95599.13;;;20.64;82.38
71621;BME280;59471;42.254;23.102;2023-07-31T04:06:04;95591.69;;;20.66;82.51
71621;BME280;59471;42.254;23.102;2023-07-31T04:08:30;95593.22;;;20.62;82.37
71621;BME280;59471;42.254;23.102;2023-07-31T04:10:55;95585.13;;;20.34;84.59
71621;BME280;59471;42.254;23.102;2023-07-31T04:13:22;95592.19;;;20.63;83.30
71621;BME280;59471;42.254;23.102;2023-07-31T04:15:51;95582.03;;;20.59;83.47
71621;BME280;59471;42.254;23.102;2023-07-31T04:18:16;95597.41;;;20.74;82.33
71621;BME280;59471;42.254;23.102;2023-07-31T04:20:42;95589.56;;;20.68;81.85
71621;BME280;59471;42.254;23.102;2023-07-31T04:23:08;95600.59;;;20.54;82.35
71621;BME280;59471;42.254;23.102;2023-07-31T04:25:33;95606.91;;;20.70;81.65
71621;BME280;59471;42.254;23.102;2023-07-31T04:28:00;95611.03;;;20.61;82.42
71621;BME280;59471;42.254;23.102;2023-07-31T04:30:26;95609.94;;;20.57;83.27
71621;BME280;59471;42.254;23.102;2023-07-31T04:32:51;95610.63;;;20.69;83.04
71621;BME280;59471;42.254;23.102;2023-07-31T04:35:17;95612.81;;;20.72;82.72
71621;BME280;59471;42.254;23.102;2023-07-31T04:37:42;95615.19;;;20.74;82.92
71621;BME280;59471;42.254;23.102;2023-07-31T04:40:10;95594.78;;;20.57;83.43
71621;BME280;59471;42.254;23.102;2023-07-31T04:42:35;95614.38;;;20.51;83.77
71621;BME280;59471;42.254;23.102;2023-07-31T04:45:01;95616.69;;;20.65;83.06
71621;BME280;59471;42.254;23.102;2023-07-31T04:47:26;95611.22;;;20.54;83.73
71621;BME280;59471;42.254;23.102;2023-07-31T04:49:52;95605.41;;;20.57;83.52
71621;BME280;59471;42.254;23.102;2023-07-31T04:52:17;95611.72;;;20.51;84.29
71621;BME280;59471;42.254;23.102;2023-07-31T04:54:43;95613.09;;;20.76;83.52
71621;BME280;59471;42.254;23.102;2023-07-31T04:57:08;95602.97;;;20.73;83.41
71621;BME280;59471;42.254;23.102;2023-07-31T04:59:37;95606.31;;;20.85;83.44
71621;BME280;59471;42.254;23.102;2023-07-31T05:02:03;95598.50;;;21.00;81.92
71621;BME280;59471;42.254;23.102;2023-07-31T05:04:28;95603.06;;;20.83;82.59
71621;BME280;59471;42.254;23.102;2023-07-31T05:06:54;95602.03;;;20.84;82.74
71621;BME280;59471;42.254;23.102;2023-07-31T05:09:19;95608.97;;;20.85;83.32
71621;BME280;59471;42.254;23.102;2023-07-31T05:11:45;95610.56;;;20.86;83.31
71621;BME280;59471;42.254;23.102;2023-07-31T05:14:10;95605.72;;;21.05;81.96
71621;BME280;59471;42.254;23.102;2023-07-31T05:16:36;95613.78;;;21.10;82.29
71621;BME280;59471;42.254;23.102;2023-07-31T05:19:01;95609.38;;;21.21;81.74
71621;BME280;59471;42.254;23.102;2023-07-31T05:21:27;95614.31;;;21.34;80.66
71621;BME280;59471;42.254;23.102;2023-07-31T05:23:53;95602.50;;;21.47;80.79
71621;BME280;59471;42.254;23.102;2023-07-31T05:26:18;95598.69;;;21.38;80.39
71621;BME280;59471;42.254;23.102;2023-07-31T05:28:44;95601.56;;;21.36;80.20
71621;BME280;59471;42.254;23.102;2023-07-31T05:31:09;95605.03;;;21.37;80.96
71621;BME280;59471;42.254;23.102;2023-07-31T05:33:35;95612.94;;;21.54;80.07
71621;BME280;59471;42.254;23.102;2023-07-31T05:36:00;95611.38;;;21.58;79.91
71621;BME280;59471;42.254;23.102;2023-07-31T05:38:26;95626.41;;;21.69;78.81
71621;BME280;59471;42.254;23.102;2023-07-31T05:40:51;95619.88;;;21.82;78.41
71621;BME280;59471;42.254;23.102;2023-07-31T05:43:17;95620.16;;;21.85;77.22
71621;BME280;59471;42.254;23.102;2023-07-31T05:45:42;95619.75;;;21.98;77.48
71621;BME280;59471;42.254;23.102;2023-07-31T05:48:08;95621.97;;;22.12;76.52
71621;BME280;59471;42.254;23.102;2023-07-31T05:50:34;95604.28;;;22.01;75.53
71621;BME280;59471;42.254;23.102;2023-07-31T05:52:59;95612.41;;;22.16;76.34
71621;BME280;59471;42.254;23.102;2023-07-31T05:55:25;95621.03;;;22.23;75.33
71621;BME280;59471;42.254;23.102;2023-07-31T05:57:54;95620.50;;;22.26;75.36
71621;BME280;59471;42.254;23.102;2023-07-31T06:00:19;95628.53;;;22.31;75.67
71621;BME280;59471;42.254;23.102;2023-07-31T06:02:46;95626.19;;;22.40;75.79
71621;BME280;59471;42.254;23.102;2023-07-31T06:05:12;95629.56;;;22.25;75.25
71621;BME280;59471;42.254;23.102;2023-07-31T06:07:38;95623.47;;;22.35;74.92
71621;BME280;59471;42.254;23.102;2023-07-31T06:10:04;95629.53;;;22.62;73.46
71621;BME280;59471;42.254;23.102;2023-07-31T06:12:34;95620.25;;;22.70;73.65
71621;BME280;59471;42.254;23.102;2023-07-31T06:15:01;95623.06;;;23.01;71.83
71621;BME280;59471;42.254;23.102;2023-07-31T06:17:27;95620.41;;;23.01;71.86
71621;BME280;59471;42.254;23.102;2023-07-31T06:19:53;95622.59;;;23.09;71.33
71621;BME280;59471;42.254;23.102;2023-07-31T06:22:18;95619.63;;;23.10;68.65
71621;BME280;59471;42.254;23.102;2023-07-31T06:24:44;95618.69;;;22.84;69.46
71621;BME280;59471;42.254;23.102;2023-07-31T06:27:10;95617.69;;;22.43;68.49
71621;BME280;59471;42.254;23.102;2023-07-31T06:29:36;95627.00;;;22.40;69.10
71621;BME280;59471;42.254;23.102;2023-07-31T06:32:02;95619.66;;;22.58;68.81
71621;BME280;59471;42.254;23.102;2023-07-31T06:34:28;95626.72;;;22.84;68.35
71621;BME280;59471;42.254;23.102;2023-07-31T06:36:54;95631.59;;;22.98;68.88
71621;BME280;59471;42.254;23.102;2023-07-31T06:39:20;95624.19;;;23.05;68.19
71621;BME280;59471;42.254;23.102;2023-07-31T06:41:46;95614.06;;;23.17;68.99
71621;BME280;59471;42.254;23.102;2023-07-31T06:44:11;95616.78;;;23.38;66.75
71621;BME280;59471;42.254;23.102;2023-07-31T06:46:37;95623.78;;;23.49;64.92
71621;BME280;59471;42.254;23.102;2023-07-31T06:49:03;95618.50;;;23.74;66.31
71621;BME280;59471;42.254;23.102;2023-07-31T06:51:28;95619.53;;;23.68;65.40
71621;BME280;59471;42.254;23.102;2023-07-31T06:53:57;95618.75;;;23.78;65.15
71621;BME280;59471;42.254;23.102;2023-07-31T06:56:22;95619.56;;;23.78;65.22
71621;BME280;59471;42.254;23.102;2023-07-31T06:58:48;95616.38;;;23.87;65.27
71621;BME280;59471;42.254;23.102;2023-07-31T07:01:14;95616.91;;;24.04;64.23
71621;BME280;59471;42.254;23.102;2023-07-31T07:03:39;95622.78;;;24.01;64.05
71621;BME280;59471;42.254;23.102;2023-07-31T07:06:05;95603.53;;;23.78;63.31
71621;BME280;59471;42.254;23.102;2023-07-31T07:08:30;95611.00;;;23.76;64.45
71621;BME280;59471;42.254;23.102;2023-07-31T07:10:56;95621.44;;;23.88;64.30
71621;BME280;59471;42.254;23.102;2023-07-31T07:13:22;95617.44;;;24.16;63.10
71621;BME280;59471;42.254;23.102;2023-07-31T07:15:48;95613.94;;;24.26;63.28
71621;BME280;59471;42.254;23.102;2023-07-31T07:18:14;95605.09;;;24.20;62.10
71621;BME280;59471;42.254;23.102;2023-07-31T07:20:40;95611.28;;;24.41;61.53
71621;BME280;59471;42.254;23.102;2023-07-31T07:23:11;95619.03;;;24.43;62.25
71621;BME280;59471;42.254;23.102;2023-07-31T07:25:37;95612.09;;;24.21;61.08
71621;BME280;59471;42.254;23.102;2023-07-31T07:28:03;95610.44;;;24.51;61.19
71621;BME280;59471;42.254;23.102;2023-07-31T07:30:29;95612.00;;;24.67;61.98
71621;BME280;59471;42.254;23.102;2023-07-31T07:32:54;95612.84;;;24.63;61.39
71621;BME280;59471;42.254;23.102;2023-07-31T07:35:20;95610.44;;;24.41;60.40
71621;BME280;59471;42.254;23.102;2023-07-31T07:37:48;95618.72;;;24.70;58.91
71621;BME280;59471;42.254;23.102;2023-07-31T07:40:15;95607.09;;;25.00;59.21
71621;BME280;59471;42.254;23.102;2023-07-31T07:42:41;95613.00;;;24.97;59.14
71621;BME280;59471;42.254;23.102;2023-07-31T07:45:09;95610.63;;;24.85;59.22
71621;BME280;59471;42.254;23.102;2023-07-31T07:47:35;95613.38;;;24.60;59.73
71621;BME280;59471;42.254;23.102;2023-07-31T07:50:00;95609.94;;;24.44;59.66
71621;BME280;59471;42.254;23.102;2023-07-31T07:52:26;95605.31;;;24.75;59.88
71621;BME280;59471;42.254;23.102;2023-07-31T07:54:51;95597.00;;;24.77;59.32
71621;BME280;59471;42.254;23.102;2023-07-31T07:57:17;95608.13;;;25.19;58.28
71621;BME280;59471;42.254;23.102;2023-07-31T07:59:43;95604.38;;;25.05;56.05
71621;BME280;59471;42.254;23.102;2023-07-31T08:02:09;95600.81;;;25.30;56.40
71621;BME280;59471;42.254;23.102;2023-07-31T08:04:34;95610.69;;;25.40;55.87
71621;BME280;59471;42.254;23.102;2023-07-31T08:07:00;95617.19;;;25.24;54.63
71621;BME280;59471;42.254;23.102;2023-07-31T08:09:25;95612.56;;;24.69;54.89
71621;BME280;59471;42.254;23.102;2023-07-31T08:11:51;95606.91;;;24.76;55.24
71621;BME280;59471;42.254;23.102;2023-07-31T08:14:16;95612.88;;;25.33;53.54
71621;BME280;59471;42.254;23.102;2023-07-31T08:16:42;95619.59;;;25.25;54.04
71621;BME280;59471;42.254;23.102;2023-07-31T08:19:08;95611.53;;;25.30;55.27
71621;BME280;59471;42.254;23.102;2023-07-31T08:21:33;95607.09;;;25.00;55.47
71621;BME280;59471;42.254;23.102;2023-07-31T08:23:59;95612.16;;;25.61;54.51
71621;BME280;59471;42.254;23.102;2023-07-31T08:26:24;95616.22;;;25.98;53.29
71621;BME280;59471;42.254;23.102;2023-07-31T08:28:50;95602.63;;;26.19;52.59
71621;BME280;59471;42.254;23.102;2023-07-31T08:31:15;95606.44;;;26.12;52.49
71621;BME280;59471;42.254;23.102;2023-07-31T08:33:41;95601.81;;;26.47;51.71
71621;BME280;59471;42.254;23.102;2023-07-31T08:36:07;95600.00;;;26.43;53.23
71621;BME280;59471;42.254;23.102;2023-07-31T08:38:32;95597.72;;;26.26;50.78
71621;BME280;59471;42.254;23.102;2023-07-31T08:40:58;95591.63;;;26.20;52.03
71621;BME280;59471;42.254;23.102;2023-07-31T08:43:25;95594.84;;;26.51;51.51
71621;BME280;59471;42.254;23.102;2023-07-31T08:45:52;95581.22;;;26.67;50.71
71621;BME280;59471;42.254;23.102;2023-07-31T08:48:19;95588.38;;;27.00;50.74
71621;BME280;59471;42.254;23.102;2023-07-31T08:50:45;95583.25;;;26.80;48.38
71621;BME280;59471;42.254;23.102;2023-07-31T08:53:11;95581.97;;;26.96;49.72
71621;BME280;59471;42.254;23.102;2023-07-31T08:55:38;95584.78;;;26.86;48.45
71621;BME280;59471;42.254;23.102;2023-07-31T08:58:04;95584.59;;;26.53;48.17
71621;BME280;59471;42.254;23.102;2023-07-31T09:00:32;95592.50;;;26.69;48.03
71621;BME280;59471;42.254;23.102;2023-07-31T09:03:08;95593.19;;;26.55;49.19
71621;BME280;59471;42.254;23.102;2023-07-31T09:05:36;95597.69;;;26.31;48.98
71621;BME280;59471;42.254;23.102;2023-07-31T09:08:03;95594.59;;;25.84;48.98
71621;BME280;59471;42.254;23.102;2023-07-31T09:10:29;95598.88;;;25.80;51.06
71621;BME280;59471;42.254;23.102;2023-07-31T09:12:55;95585.31;;;25.66;51.38
71621;BME280;59471;42.254;23.102;2023-07-31T09:15:23;95585.16;;;26.21;49.80
71621;BME280;59471;42.254;23.102;2023-07-31T09:17:58;95593.69;;;25.94;49.01
71621;BME280;59471;42.254;23.102;2023-07-31T09:20:26;95590.25;;;25.49;50.27
71621;BME280;59471;42.254;23.102;2023-07-31T09:22:51;95593.91;;;25.63;50.83
71621;BME280;59471;42.254;23.102;2023-07-31T09:25:22;95587.56;;;25.49;50.64
71621;BME280;59471;42.254;23.102;2023-07-31T09:28:01;95583.41;;;25.28;51.25
71621;BME280;59471;42.254;23.102;2023-07-31T09:30:31;95579.91;;;25.27;50.76
71621;BME280;59471;42.254;23.102;2023-07-31T09:33:05;95583.00;;;25.50;50.13
71621;BME280;59471;42.254;23.102;2023-07-31T09:35:35;95591.59;;;25.47;50.94
71621;BME280;59471;42.254;23.102;2023-07-31T09:38:05;95577.16;;;25.42;50.68
71621;BME280;59471;42.254;23.102;2023-07-31T09:40:33;95587.00;;;25.52;48.85
71621;BME280;59471;42.254;23.102;2023-07-31T09:43:02;95584.75;;;25.70;48.32
71621;BME280;59471;42.254;23.102;2023-07-31T09:45:30;95580.63;;;25.43;48.86
71621;BME280;59471;42.254;23.102;2023-07-31T09:47:58;95587.00;;;25.52;49.03
71621;BME280;59471;42.254;23.102;2023-07-31T09:50:24;95577.84;;;25.63;49.09
71621;BME280;59471;42.254;23.102;2023-07-31T09:52:51;95576.97;;;26.07;48.13
71621;BME280;59471;42.254;23.102;2023-07-31T09:55:19;95574.63;;;26.30;48.24
71621;BME280;59471;42.254;23.102;2023-07-31T09:57:48;95566.41;;;26.45;47.90
71621;BME280;59471;42.254;23.102;2023-07-31T10:00:17;95563.19;;;26.43;47.53
71621;BME280;59471;42.254;23.102;2023-07-31T10:02:47;95566.22;;;26.37;47.12
71621;BME280;59471;42.254;23.102;2023-07-31T10:05:16;95559.66;;;26.48;47.10
71621;BME280;59471;42.254;23.102;2023-07-31T10:07:54;95565.16;;;26.86;46.57
71621;BME280;59471;42.254;23.102;2023-07-31T10:10:21;95557.06;;;27.53;43.77
71621;BME280;59471;42.254;23.102;2023-07-31T10:12:48;95572.50;;;27.61;43.36
71621;BME280;59471;42.254;23.102;2023-07-31T10:15:15;95557.63;;;27.68;43.18
71621;BME280;59471;42.254;23.102;2023-07-31T10:17:41;95554.06;;;28.06;43.15
71621;BME280;59471;42.254;23.102;2023-07-31T10:20:08;95553.72;;;28.26;40.44
71621;BME280;59471;42.254;23.102;2023-07-31T10:22:35;95553.91;;;28.30;40.27
71621;BME280;59471;42.254;23.102;2023-07-31T10:25:01;95551.06;;;27.93;40.92
71621;BME280;59471;42.254;23.102;2023-07-31T10:27:27;95545.75;;;27.88;40.57
71621;BME280;59471;42.254;23.102;2023-07-31T10:29:55;95554.31;;;28.23;41.70
71621;BME280;59471;42.254;23.102;2023-07-31T10:32:22;95540.84;;;28.23;40.09
71621;BME280;59471;42.254;23.102;2023-07-31T10:34:50;95548.41;;;28.07;41.24
71621;BME280;59471;42.254;23.102;2023-07-31T10:37:23;95545.41;;;28.55;39.56
71621;BME280;59471;42.254;23.102;2023-07-31T10:40:19;95546.19;;;28.83;40.66
71621;BME280;59471;42.254;23.102;2023-07-31T10:42:53;95536.25;;;28.24;40.82
71621;BME280;59471;42.254;23.102;2023-07-31T10:45:33;95536.19;;;28.29;40.61
71621;BME280;59471;42.254;23.102;2023-07-31T10:48:06;95522.25;;;28.40;40.49
71621;BME280;59471;42.254;23.102;2023-07-31T10:50:37;95541.78;;;28.46;40.00
71621;BME280;59471;42.254;23.102;2023-07-31T10:53:04;95536.78;;;27.74;40.72
71621;BME280;59471;42.254;23.102;2023-07-31T10:55:39;95535.88;;;27.84;40.74
71621;BME280;59471;42.254;23.102;2023-07-31T11:00:32;95534.78;;;28.31;39.39
71621;BME280;59471;42.254;23.102;2023-07-31T11:03:04;95518.75;;;28.68;39.50
71621;BME280;59471;42.254;23.102;2023-07-31T11:06:00;95523.41;;;29.17;37.76
71621;BME280;59471;42.254;23.102;2023-07-31T11:08:36;95506.47;;;28.61;37.56
71621;BME280;59471;42.254;23.102;2023-07-31T11:11:08;95512.97;;;28.60;39.08
71621;BME280;59471;42.254;23.102;2023-07-31T11:16:19;95510.25;;;29.02;38.11
71621;BME280;59471;42.254;23.102;2023-07-31T11:18:46;95519.72;;;29.13;39.05
71621;BME280;59471;42.254;23.102;2023-07-31T11:21:14;95510.63;;;29.09;37.25
71621;BME280;59471;42.254;23.102;2023-07-31T11:23:45;95510.50;;;28.50;38.58
71621;BME280;59471;42.254;23.102;2023-07-31T11:26:11;95511.00;;;28.06;38.97
71621;BME280;59471;42.254;23.102;2023-07-31T11:28:37;95498.13;;;27.70;41.21
71621;BME280;59471;42.254;23.102;2023-07-31T11:31:04;95504.03;;;27.72;40.02
71621;BME280;59471;42.254;23.102;2023-07-31T11:33:29;95502.19;;;27.86;39.91
71621;BME280;59471;42.254;23.102;2023-07-31T11:35:55;95503.09;;;28.42;40.09
71621;BME280;59471;42.254;23.102;2023-07-31T11:38:28;95488.28;;;28.95;37.95
71621;BME280;59471;42.254;23.102;2023-07-31T11:41:02;95486.47;;;28.90;38.15
71621;BME280;59471;42.254;23.102;2023-07-31T11:43:30;95491.53;;;29.19;36.53
71621;BME280;59471;42.254;23.102;2023-07-31T11:45:59;95495.88;;;28.93;36.78
71621;BME280;59471;42.254;23.102;2023-07-31T11:48:29;95487.31;;;28.77;37.94
71621;BME280;59471;42.254;23.102;2023-07-31T11:50:59;95488.72;;;28.47;37.50
71621;BME280;59471;42.254;23.102;2023-07-31T11:53:51;95492.47;;;28.18;37.65
71621;BME280;59471;42.254;23.102;2023-07-31T11:56:19;95482.47;;;28.05;38.13
71621;BME280;59471;42.254;23.102;2023-07-31T11:58:47;95474.13;;;28.06;37.40
71621;BME280;59471;42.254;23.102;2023-07-31T12:01:15;95474.88;;;27.79;38.95
71621;BME280;59471;42.254;23.102;2023-07-31T12:03:42;95478.09;;;28.09;38.83
71621;BME280;59471;42.254;23.102;2023-07-31T12:06:08;95455.53;;;28.87;35.56
71621;BME280;59471;42.254;23.102;2023-07-31T12:08:33;95459.59;;;28.99;36.11
71621;BME280;59471;42.254;23.102;2023-07-31T12:11:04;95463.16;;;28.72;36.14
71621;BME280;59471;42.254;23.102;2023-07-31T12:13:31;95451.19;;;28.64;35.54
71621;BME280;59471;42.254;23.102;2023-07-31T12:15:59;95449.38;;;29.01;36.46
71621;BME280;59471;42.254;23.102;2023-07-31T12:18:28;95450.06;;;29.29;35.11
71621;BME280;59471;42.254;23.102;2023-07-31T12:23:30;95436.88;;;29.72;33.40
71621;BME280;59471;42.254;23.102;2023-07-31T12:31:14;95434.91;;;29.19;34.08
71621;BME280;59471;42.254;23.102;2023-07-31T12:33:43;95430.50;;;29.01;34.04
71621;BME280;59471;42.254;23.102;2023-07-31T12:36:10;95427.56;;;28.97;34.83
71621;BME280;59471;42.254;23.102;2023-07-31T12:38:38;95421.63;;;29.45;35.68
71621;BME280;59471;42.254;23.102;2023-07-31T12:41:04;95435.03;;;29.37;35.14
71621;BME280;59471;42.254;23.102;2023-07-31T12:43:31;95435.13;;;29.54;35.98
71621;BME280;59471;42.254;23.102;2023-07-31T12:45:57;95422.22;;;29.65;37.53
71621;BME280;59471;42.254;23.102;2023-07-31T12:48:22;95430.34;;;29.96;36.30
71621;BME280;59471;42.254;23.102;2023-07-31T12:50:48;95424.31;;;29.99;35.61
71621;BME280;59471;42.254;23.102;2023-07-31T12:53:15;95411.38;;;29.87;36.56
71621;BME280;59471;42.254;23.102;2023-07-31T12:55:40;95415.28;;;29.05;36.58
71621;BME280;59471;42.254;23.102;2023-07-31T12:58:06;95410.34;;;29.21;38.32
71621;BME280;59471;42.254;23.102;2023-07-31T13:00:32;95409.28;;;29.53;34.76
71621;BME280;59471;42.254;23.102;2023-07-31T13:02:57;95403.28;;;29.33;36.41
71621;BME280;59471;42.254;23.102;2023-07-31T13:05:23;95403.84;;;28.85;36.94
71621;BME280;59471;42.254;23.102;2023-07-31T13:07:48;95406.50;;;28.63;36.13
71621;BME280;59471;42.254;23.102;2023-07-31T13:10:14;95405.34;;;28.41;36.50